This is the latest recevied weather packets stored in our database for station/object LU8FJH-13. If no packets are shown the sender has not sent any weather packets the latest 1 day(s).
| Time | Temp. | Humidity | Pressure | Rain* | Wind** | Luminosity | Snow |
|---|---|---|---|---|---|---|---|
| 1778163724 | 15.56° C | 61% | 1005.8 hPa | 0 mm | - | - | - |
| 1778161024 | 16.11° C | 61% | 1005.4 hPa | 0 mm | - | - | - |
| 1778157784 | 16.67° C | 64% | 1005.7 hPa | 0 mm | - | - | - |
| 1778156704 | 16.67° C | 62% | 1005.5 hPa | 0 mm | - | - | - |
| 1778154544 | 17.22° C | 62% | 1004.4 hPa | 0 mm | - | - | - |
| 1778152924 | 17.22° C | 63% | 1003.7 hPa | 0 mm | - | - | - |
| 1778141043 | 18.89° C | 96% | 1003.1 hPa | 0 mm | - | - | - |
| 1778139963 | 19.44° C | 96% | 1002.6 hPa | 0 mm | - | - | - |
| 1778137263 | 19.44° C | 96% | 1002 hPa | 0 mm | - | - | - |
| 1778135643 | 20° C | 96% | 1001.6 hPa | 0 mm | - | - | - |
| 1778134563 | 20° C | 96% | 1001.2 hPa | 0.25 mm | - | - | - |
| 1778134023 | 20° C | 96% | 1001.5 hPa | 0.25 mm | - | - | - |
| 1778133483 | 19.44° C | 96% | 1001.4 hPa | 0.25 mm | - | - | - |
| 1778132943 | 20° C | 96% | 1001.7 hPa | 0.25 mm | - | - | - |
| 1778131863 | 20° C | 95% | 1001.8 hPa | 0 mm | - | - | - |
| 1778131323 | 20° C | 95% | 1001.4 hPa | 0 mm | - | - | - |
| 1778130783 | 20° C | 95% | 1001.6 hPa | 3.56 mm | - | - | - |
| 1778130243 | 20.56° C | 95% | 1001.6 hPa | 11.68 mm | - | - | - |
| 1778129703 | 20.56° C | 95% | 1001.4 hPa | 17.02 mm | - | - | - |
| 1778129163 | 21.11° C | 93% | 1000.8 hPa | 22.1 mm | - | - | - |
| 1778128623 | 21.11° C | 93% | 1001 hPa | 23.62 mm | - | - | - |
| 1778128083 | 20.56° C | 93% | 1000.6 hPa | 23.62 mm | - | - | - |
| 1778127543 | 20.56° C | 92% | 1000.6 hPa | 22.86 mm | - | - | - |
| 1778127003 | 21.11° C | 91% | 1001.2 hPa | 14.99 mm | - | - | - |
| 1778126463 | 21.67° C | 90% | 1000.1 hPa | 11.43 mm | - | - | - |
* Rain latest hour (hover to see other rain measurements)
** Current wind speed in m/s (hover to see current wind gust speed)